createdAt,value
2022-09-27T00:03:26.447Z,99466.45
2022-09-27T00:07:14.202Z,99456.20
2022-09-27T00:11:01.748Z,99457.02
2022-09-27T00:14:13.936Z,99456.90
2022-09-27T00:17:30.643Z,99454.36
2022-09-27T00:20:47.192Z,99446.32
2022-09-27T00:24:33.325Z,99441.85
2022-09-27T00:28:02.954Z,99437.79
2022-09-27T00:31:44.048Z,99435.16
2022-09-27T00:35:31.479Z,99424.55
2022-09-27T00:39:21.840Z,99422.08
2022-09-27T00:43:09.244Z,99422.81
2022-09-27T00:47:05.656Z,99420.93
2022-09-27T00:50:59.660Z,99413.00
2022-09-27T00:54:30.521Z,99410.46
2022-09-27T00:57:23.944Z,99398.77
2022-09-27T01:00:54.045Z,99400.17
2022-09-27T01:04:00.994Z,99395.11
2022-09-27T01:06:50.951Z,99389.38
2022-09-27T01:10:38.238Z,99387.05
2022-09-27T01:14:10.794Z,99387.80
2022-09-27T01:17:53.738Z,99384.85
2022-09-27T01:21:08.478Z,99380.00
2022-09-27T01:24:14.280Z,99377.88
2022-09-27T01:27:54.973Z,99377.33
2022-09-27T01:31:15.793Z,99372.42
2022-09-27T01:34:27.179Z,99367.13
2022-09-27T01:37:27.170Z,99365.27
2022-09-27T01:41:18.971Z,99366.11
2022-09-27T01:45:18.540Z,99360.46
2022-09-27T01:48:54.707Z,99357.54
2022-09-27T01:52:31.969Z,99351.16
2022-09-27T01:55:48.109Z,99343.89
2022-09-27T01:59:32.447Z,99336.91
2022-09-27T02:03:22.329Z,99321.21
2022-09-27T02:07:23.967Z,99322.21
2022-09-27T02:10:53.051Z,99326.58
2022-09-27T02:14:04.903Z,99306.40
2022-09-27T02:17:53.733Z,99303.40
2022-09-27T02:21:16.725Z,99298.30
2022-09-27T02:24:38.433Z,99302.55
2022-09-27T02:28:28.711Z,99305.14
2022-09-27T02:32:16.176Z,99294.60
2022-09-27T02:35:56.036Z,99288.68
2022-09-27T02:39:43.641Z,99282.42
2022-09-27T02:42:32.073Z,99276.85
2022-09-27T02:45:34.224Z,99272.42
2022-09-27T02:49:10.227Z,99268.48
2022-09-27T02:52:48.164Z,99262.56
2022-09-27T02:56:26.779Z,99261.42
2022-09-27T03:00:16.499Z,99264.16
2022-09-27T03:04:14.413Z,99258.78
2022-09-27T03:07:54.371Z,99254.63
2022-09-27T03:11:14.275Z,99255.53
2022-09-27T03:15:02.299Z,99254.92
2022-09-27T03:18:38.102Z,99254.59
2022-09-27T03:22:34.464Z,99244.89
2022-09-27T03:26:22.879Z,99240.12
2022-09-27T03:30:08.531Z,99234.85
2022-09-27T03:33:15.153Z,99233.95
2022-09-27T03:36:59.461Z,99227.04
2022-09-27T03:40:26.846Z,99223.14
2022-09-27T03:43:24.474Z,99219.88
2022-09-27T03:47:08.644Z,99222.70
2022-09-27T03:50:40.141Z,99219.89
2022-09-27T03:54:07.495Z,99225.30
2022-09-27T03:57:34.896Z,99219.90
2022-09-27T04:01:36.008Z,99211.84
2022-09-27T04:05:23.513Z,99205.84
2022-09-27T04:09:02.405Z,99209.31
2022-09-27T04:12:41.076Z,99205.98
2022-09-27T04:16:29.172Z,99197.42
2022-09-27T04:20:23.203Z,99197.48
2022-09-27T04:23:41.409Z,99192.95
2022-09-27T04:27:28.626Z,99188.64
2022-09-27T04:31:16.126Z,99185.21
2022-09-27T04:35:04.953Z,99175.64
2022-09-27T04:38:32.109Z,99178.70
2022-09-27T04:41:34.977Z,99181.59
2022-09-27T04:45:22.819Z,99171.27
2022-09-27T04:48:41.293Z,99168.95
2022-09-27T04:52:21.766Z,99167.08
2022-09-27T04:56:09.136Z,99164.31
2022-09-27T04:59:13.436Z,99162.27
2022-09-27T05:02:40.915Z,99156.62
2022-09-27T05:06:31.940Z,99158.56
2022-09-27T05:10:06.761Z,99161.60
2022-09-27T05:13:32.074Z,99152.73
2022-09-27T05:16:59.707Z,99145.94
2022-09-27T05:20:52.966Z,99149.05
2022-09-27T05:24:39.684Z,99148.45
2022-09-27T05:27:53.236Z,99147.90
2022-09-27T05:31:40.782Z,99147.10
2022-09-27T05:35:28.385Z,99147.64
2022-09-27T05:39:00.605Z,99144.71
2022-09-27T05:42:48.044Z,99141.98
2022-09-27T05:46:35.782Z,99144.05
2022-09-27T05:49:26.125Z,99144.77
2022-09-27T05:52:52.981Z,99143.02
2022-09-27T05:56:32.040Z,99139.56
2022-09-27T06:00:22.522Z,99137.57
2022-09-27T06:15:34.414Z,99138.58
2022-09-27T06:19:45.536Z,99138.15
2022-09-27T06:23:17.450Z,99135.19
2022-09-27T06:27:06.628Z,99134.43
2022-09-27T06:30:56.278Z,99136.93
2022-09-27T06:34:47.988Z,99138.05
2022-09-27T06:38:17.310Z,99139.77
2022-09-27T06:42:06.636Z,99146.01
2022-09-27T06:46:14.204Z,99142.43
2022-09-27T06:50:05.079Z,99141.96
2022-09-27T06:53:47.778Z,99132.92
2022-09-27T06:57:36.942Z,99131.60
2022-09-27T07:01:26.486Z,99129.89
2022-09-27T07:05:26.252Z,99135.52
2022-09-27T07:09:05.188Z,99130.30
2022-09-27T07:12:54.173Z,99129.36
2022-09-27T07:16:43.698Z,99128.60
2022-09-27T07:20:32.760Z,99127.59
2022-09-27T07:24:21.676Z,99120.06
2022-09-27T07:28:10.639Z,99118.88
2022-09-27T07:31:59.578Z,99121.39
2022-09-27T07:35:49.715Z,99116.17
2022-09-27T07:39:41.731Z,99114.66
2022-09-27T07:43:36.681Z,99113.25
2022-09-27T07:47:25.916Z,99114.66
2022-09-27T07:51:27.430Z,99113.63
2022-09-27T07:55:19.795Z,99115.22
2022-09-27T07:59:09.002Z,99117.69
2022-09-27T08:02:58.510Z,99117.14
2022-09-27T08:06:47.824Z,99118.86
2022-09-27T08:10:36.729Z,99121.97
2022-09-27T08:13:30.910Z,99124.25
2022-09-27T08:16:49.847Z,99123.02
2022-09-27T08:20:39.701Z,99122.36
2022-09-27T08:24:28.743Z,99112.98
2022-09-27T08:28:23.915Z,99113.73
2022-09-27T08:32:23.285Z,99116.95
2022-09-27T08:36:13.233Z,99117.02
2022-09-27T08:40:05.065Z,99118.55
2022-09-27T08:43:46.773Z,99126.10
2022-09-27T08:47:36.637Z,99129.13
2022-09-27T08:51:30.408Z,99124.23
2022-09-27T08:55:23.306Z,99125.13
2022-09-27T08:59:30.693Z,99122.11
2022-09-27T09:03:19.495Z,99125.75
2022-09-27T09:07:19.212Z,99124.88
2022-09-27T09:11:28.159Z,99131.52
2022-09-27T09:15:17.478Z,99128.60
2022-09-27T09:19:06.751Z,99126.88
2022-09-27T09:23:14.081Z,99127.54
2022-09-27T09:27:09.202Z,99132.32
2022-09-27T09:30:56.882Z,99126.68
2022-09-27T09:34:39.235Z,99128.00
2022-09-27T09:38:27.178Z,99130.36
2022-09-27T09:42:19.068Z,99129.80
2022-09-27T09:46:17.126Z,99127.05
2022-09-27T09:50:06.462Z,99129.15
2022-09-27T09:53:55.643Z,99130.05
2022-09-27T09:57:51.297Z,99124.79
2022-09-27T10:01:30.148Z,99122.34
2022-09-27T10:05:19.354Z,99125.63
2022-09-27T10:08:57.102Z,99118.30
2022-09-27T10:13:01.186Z,99114.73
2022-09-27T10:17:05.594Z,99114.96
2022-09-27T10:20:54.621Z,99109.64
2022-09-27T10:24:45.275Z,99109.55
2022-09-27T10:28:40.527Z,99109.58
2022-09-27T10:32:22.300Z,99107.91
2022-09-27T10:36:18.663Z,99105.45
2022-09-27T10:40:07.777Z,99103.46
2022-09-27T10:44:03.100Z,99099.67
2022-09-27T10:47:47.125Z,99097.21
2022-09-27T10:51:41.870Z,99098.52
2022-09-27T10:55:33.711Z,99096.89
2022-09-27T10:59:33.557Z,99092.61
2022-09-27T11:03:25.952Z,99084.39
2022-09-27T11:07:24.157Z,99084.05
2022-09-27T11:11:25.075Z,99077.34
2022-09-27T11:15:17.725Z,99070.52
2022-09-27T11:19:15.273Z,99071.60
2022-09-27T11:23:19.979Z,99068.80
2022-09-27T11:27:07.474Z,99068.80
2022-09-27T11:31:11.507Z,99069.23
2022-09-27T11:35:12.327Z,99068.59
2022-09-27T11:39:06.515Z,99065.10
2022-09-27T11:43:01.565Z,99054.99
2022-09-27T11:46:59.050Z,99053.99
2022-09-27T11:50:53.198Z,99045.86
2022-09-27T11:55:03.612Z,99041.67
2022-09-27T11:58:52.948Z,99045.63
2022-09-27T12:02:50.799Z,99041.92
2022-09-27T12:06:35.161Z,99042.59
2022-09-27T12:10:24.338Z,99041.89
2022-09-27T12:14:19.070Z,99037.14
2022-09-27T12:18:10.882Z,99040.02
2022-09-27T12:22:03.255Z,99032.61
2022-09-27T12:25:44.338Z,99034.17
2022-09-27T12:29:37.602Z,99026.63
2022-09-27T12:33:37.336Z,99032.04
2022-09-27T12:37:27.290Z,99026.44
2022-09-27T12:41:17.494Z,99025.23
2022-09-27T12:45:07.503Z,99025.46
2022-09-27T12:49:01.025Z,99021.23
2022-09-27T12:52:51.672Z,99024.20
2022-09-27T12:56:50.925Z,99021.55
2022-09-27T13:01:02.168Z,99017.89
2022-09-27T13:05:07.922Z,99018.40
2022-09-27T13:09:12.967Z,99010.98
2022-09-27T13:12:56.110Z,99004.51
2022-09-27T13:16:45.921Z,98995.88
2022-09-27T13:20:38.631Z,98991.15
2022-09-27T13:24:07.576Z,98996.02
2022-09-27T13:28:03.659Z,98993.70
2022-09-27T13:31:52.996Z,98995.94
2022-09-27T13:35:51.022Z,98998.55
2022-09-27T13:39:34.292Z,99006.85
2022-09-27T13:43:29.423Z,99000.96
2022-09-27T13:47:18.622Z,99000.45
2022-09-27T13:51:10.800Z,99000.27
2022-09-27T13:55:15.005Z,98994.58
2022-09-27T13:58:48.383Z,98998.24
2022-09-27T14:02:41.704Z,98998.34
2022-09-27T14:06:46.579Z,98995.02
2022-09-27T14:10:28.835Z,98998.09
2022-09-27T14:13:57.146Z,98997.44
2022-09-27T14:17:25.283Z,98995.30
2022-09-27T14:21:15.701Z,98995.16
2022-09-27T14:25:19.646Z,98990.58
2022-09-27T14:29:08.845Z,98989.48
2022-09-27T14:32:55.394Z,98987.73
2022-09-27T14:36:46.468Z,98979.70
2022-09-27T14:40:35.816Z,98978.45
2022-09-27T14:44:28.272Z,98977.39
2022-09-27T14:48:17.722Z,98978.84
2022-09-27T14:52:09.976Z,98982.08
2022-09-27T14:55:46.130Z,98980.19
2022-09-27T14:59:28.980Z,98979.30
2022-09-27T15:03:21.786Z,98975.04
2022-09-27T15:07:05.816Z,98982.14
2022-09-27T15:10:58.630Z,98977.52
2022-09-27T15:14:59.784Z,98977.89
2022-09-27T15:18:50.688Z,98978.47
2022-09-27T15:22:33.650Z,98979.30
2022-09-27T15:26:44.552Z,98977.46
2022-09-27T15:30:35.579Z,98982.25
2022-09-27T15:34:33.377Z,98982.36
2022-09-27T15:38:13.690Z,98984.90
2022-09-27T15:41:46.508Z,98988.56
2022-09-27T15:45:48.647Z,98991.04
2022-09-27T15:49:57.228Z,98997.51
2022-09-27T15:53:51.602Z,99000.89
2022-09-27T15:57:28.707Z,98997.35
2022-09-27T16:00:52.830Z,99000.44
2022-09-27T16:04:23.337Z,99001.42
2022-09-27T16:08:15.702Z,99000.13
2022-09-27T16:12:06.503Z,98991.79
2022-09-27T16:15:51.007Z,98993.09
2022-09-27T16:19:42.077Z,99003.14
2022-09-27T16:23:11.283Z,99008.44
2022-09-27T16:26:56.421Z,99027.81
2022-09-27T16:30:42.282Z,99022.04
2022-09-27T16:34:33.410Z,99035.23
2022-09-27T16:38:16.176Z,99042.84
2022-09-27T16:42:07.959Z,99052.29
2022-09-27T16:45:42.778Z,99061.88
2022-09-27T16:49:37.726Z,99065.56
2022-09-27T16:53:30.067Z,99076.55
2022-09-27T16:57:21.430Z,99074.81
2022-09-27T17:01:13.310Z,99078.42
2022-09-27T17:05:04.382Z,99069.33
2022-09-27T17:08:57.999Z,99072.70
2022-09-27T17:12:34.059Z,99059.46
2022-09-27T17:16:24.108Z,99061.84
2022-09-27T17:20:17.127Z,99056.83
2022-09-27T17:23:59.735Z,99048.84
2022-09-27T17:27:53.400Z,99053.09
2022-09-27T17:31:21.968Z,99056.33
2022-09-27T17:34:14.206Z,99060.83
2022-09-27T17:37:58.896Z,99068.64
2022-09-27T17:41:42.319Z,99070.67
2022-09-27T17:45:35.564Z,99081.70
2022-09-27T17:49:23.733Z,99081.20
2022-09-27T17:53:07.679Z,99087.16
2022-09-27T17:57:04.120Z,99086.36
2022-09-27T18:00:55.124Z,99086.55
2022-09-27T18:04:46.908Z,99092.85
2022-09-27T18:08:37.153Z,99094.25
2022-09-27T18:12:28.108Z,99097.45
2022-09-27T18:16:00.470Z,99098.27
2022-09-27T18:19:41.208Z,99099.59
2022-09-27T18:23:32.480Z,99104.78
2022-09-27T18:27:20.846Z,99112.98
2022-09-27T18:31:16.555Z,99113.11
2022-09-27T18:35:08.777Z,99118.11
2022-09-27T18:38:39.043Z,99115.34
2022-09-27T18:42:16.221Z,99116.52
2022-09-27T18:46:34.024Z,99119.76
2022-09-27T18:50:07.589Z,99123.16
2022-09-27T18:53:54.895Z,99129.81
2022-09-27T18:57:44.622Z,99133.80
2022-09-27T19:01:35.425Z,99137.94
2022-09-27T19:05:25.950Z,99140.53
2022-09-27T19:09:19.653Z,99137.41
2022-09-27T19:13:02.107Z,99138.92
2022-09-27T19:16:58.709Z,99146.08
2022-09-27T19:20:48.948Z,99147.56
2022-09-27T19:24:20.568Z,99152.90
2022-09-27T19:28:10.598Z,99153.60
2022-09-27T19:31:50.530Z,99151.21
2022-09-27T19:35:30.738Z,99154.41
2022-09-27T19:38:56.632Z,99163.67
2022-09-27T19:42:46.749Z,99162.80
2022-09-27T19:46:36.882Z,99164.23
2022-09-27T19:49:34.159Z,99170.33
2022-09-27T19:53:04.617Z,99172.17
2022-09-27T19:56:58.321Z,99171.05
2022-09-27T20:00:48.351Z,99170.73
2022-09-27T20:04:28.323Z,99169.72
2022-09-27T20:08:18.717Z,99167.23
2022-09-27T20:12:09.876Z,99168.77
2022-09-27T20:15:59.547Z,99169.48
2022-09-27T20:19:50.448Z,99175.77
2022-09-27T20:23:22.150Z,99175.02
2022-09-27T20:31:26.380Z,99171.86
2022-09-27T20:35:08.003Z,99173.46
2022-09-27T20:39:01.213Z,99172.00
2022-09-27T20:42:50.418Z,99179.11
2022-09-27T20:46:40.789Z,99183.13
2022-09-27T20:50:21.690Z,99188.95
2022-09-27T20:53:52.157Z,99186.24
2022-09-27T20:57:40.232Z,99182.29
2022-09-27T21:01:24.848Z,99183.98
2022-09-27T21:05:08.376Z,99182.08
2022-09-27T21:08:56.090Z,99180.70
2022-09-27T21:12:43.898Z,99180.08
2022-09-27T21:16:31.891Z,99179.29
2022-09-27T21:20:19.521Z,99187.76
2022-09-27T21:23:50.172Z,99188.50
2022-09-27T21:27:38.115Z,99192.69
2022-09-27T21:31:05.858Z,99197.33
2022-09-27T21:34:52.421Z,99201.42
2022-09-27T21:38:34.351Z,99202.50
2022-09-27T21:42:10.493Z,99201.70
2022-09-27T21:45:50.640Z,99201.13
2022-09-27T21:49:13.437Z,99201.13
2022-09-27T21:52:41.353Z,99202.15
2022-09-27T21:56:34.680Z,99202.83
2022-09-27T22:00:22.377Z,99204.98
2022-09-27T22:04:10.255Z,99203.64
2022-09-27T22:07:57.404Z,99203.91
2022-09-27T22:11:44.945Z,99201.07
2022-09-27T22:15:32.438Z,99200.27
2022-09-27T22:19:19.913Z,99198.92
2022-09-27T22:23:07.581Z,99194.33
2022-09-27T22:27:00.726Z,99202.32
2022-09-27T22:30:48.249Z,99206.66
2022-09-27T22:34:38.857Z,99210.57
2022-09-27T22:38:26.586Z,99209.77
2022-09-27T22:42:14.052Z,99210.73
2022-09-27T22:46:01.455Z,99205.43
2022-09-27T22:49:49.082Z,99202.16
2022-09-27T22:53:36.808Z,99203.79
2022-09-27T22:57:24.521Z,99204.44
2022-09-27T23:01:02.087Z,99205.20
2022-09-27T23:04:50.094Z,99213.54
2022-09-27T23:08:38.314Z,99216.98
2022-09-27T23:12:15.824Z,99217.86
2022-09-27T23:16:03.097Z,99218.63
2022-09-27T23:19:42.943Z,99218.12
2022-09-27T23:23:33.402Z,99220.96
2022-09-27T23:27:19.366Z,99220.52
2022-09-27T23:30:59.531Z,99219.76
2022-09-27T23:34:47.189Z,99219.21
2022-09-27T23:38:34.691Z,99219.45
2022-09-27T23:42:22.342Z,99216.20
2022-09-27T23:45:35.266Z,99209.73
2022-09-27T23:49:15.389Z,99208.86
2022-09-27T23:53:02.884Z,99206.98
2022-09-27T23:57:02.416Z,99206.98
